CheckWX is a tool to help pilots better visualize weather data.  It is not intended as a substitute for an official pre-flight weather briefing.

01:23:40 UTC

SCEL METAR
Comodoro Arturo Merino Benítez International Airport
Santiago, Chile
Current

24 mins ago

SCEL 150100Z 15007KT 110V170 9999 BKN040 BKN060 14/08 Q1019 NOSIG
Observed
Oct-15 @ 01:00 UTC
Wind
  • 150° at 7 KTS
Visibility
10,000+ meters
Flight Rules
VFR
Cloud Levels
  • Broken at 4,000' AGL
  • Broken at 6,000' AGL
Temperature
14°C / 57°F
Dewpoint
C / 46°F
Humidity
67%
Altimeter
30.09" Hg
Pressure
1018.92 hPa
Previous

1 hour ago

SCEL 150000Z 15005KT 9999 BKN040 BKN070 15/08 Q1018 NOSIG
Observed
Oct-15 @ 00:00 UTC
Wind
  • 150° at 5 KTS
Visibility
10,000+ meters
Flight Rules
VFR
Cloud Levels
  • Broken at 4,000' AGL
  • Broken at 7,000' AGL
Temperature
15°C / 59°F
Dewpoint
C / 46°F
Humidity
63%
Altimeter
30.06" Hg
Pressure
1017.92 hPa
Previous

2 hours ago

SCEL 142300Z 17006KT 9999 BKN050 SCT070 15/08 Q1017 NOSIG
Observed
Oct-14 @ 23:00 UTC
Wind
  • 170° at 6 KTS
Visibility
10,000+ meters
Flight Rules
VFR
Cloud Levels
  • Broken at 5,000' AGL
  • Scattered at 7,000' AGL
Temperature
15°C / 59°F
Dewpoint
C / 46°F
Humidity
63%
Altimeter
30.03" Hg
Pressure
1016.92 hPa